Overview Statistics Trail Chart Weather Telemetry Raw packets
 

This is the latest recevied weather packets stored in our database for station/object W5ADC. If no packets are shown the sender has not sent any weather packets the latest 10 day(s).

<< 21 22 23 24 25 26 27 >>
Time Temp. Humidity Pressure Rain* Wind** Luminosity Snow
1788466749 31.67° C 66% 1008.7 hPa 0 mm - 659 W/m² -
1788466445 30.56° C 68% 1008.9 hPa 0 mm - 761 W/m² -
1788466144 30.56° C 68% 1009.1 hPa 0 mm - 434 W/m² -
1788465839 31.11° C 67% 1009 hPa 0 mm - 358 W/m² -
1788465534 30° C 70% 1008.8 hPa 0 mm - 384 W/m² -
1788465230 30° C 69% 1008.7 hPa 0 mm - 263 W/m² -
1788464924 30° C 70% 1009.1 hPa 0 mm - 252 W/m² -
1788464620 30° C 70% 1008.9 hPa 0 mm - 216 W/m² -
1788464315 30° C 70% 1009 hPa 0 mm - 202 W/m² -
1788464012 30° C 70% 1009.2 hPa 0 mm - 215 W/m² -
1788463707 30.56° C 70% 1009.1 hPa 0 mm - 225 W/m² -
1788463402 30.56° C 69% 1009.3 hPa 0 mm - 193 W/m² -
1788463099 30.56° C 70% 1009.3 hPa 0 mm - 244 W/m² -
1788462795 30.56° C 69% 1009.4 hPa 0 mm - 300 W/m² -
1788462494 30.56° C 70% 1009.4 hPa 0 mm - 844 W/m² -
1788462188 30° C 71% 1009.6 hPa 0 mm - 287 W/m² -
1788461882 30° C 70% 1009.5 hPa 0 mm - 336 W/m² -
1788461577 29.44° C 72% 1009.7 hPa 0 mm - 337 W/m² -
1788461274 30° C 72% 1009.6 hPa 0 mm - 274 W/m² -
1788460970 30.56° C 70% 1009.6 hPa 0 mm - 443 W/m² -
1788460664 30° C 71% 1009.8 hPa 0 mm - 526 W/m² -
1788460359 30° C 72% 1009.9 hPa 0 mm - 1009 W/m² -
1788460058 29.44° C 73% 1009.9 hPa 0 mm - 594 W/m² -
1788459753 28.89° C 76% 1010.1 hPa 0 mm - 429 W/m² -
1788459452 28.89° C 76% 1010.2 hPa 0 mm - 170 W/m² -

* Rain latest hour (hover to see other rain measurements)
** Current wind speed in m/s (hover to see current wind gust speed)